sensor_id;sensor_type;location;lat;lon;timestamp;temperature;humidity
52036;DHT22;38046;49.448;32.074;2022-10-16T00:01:16;10.30;61.40
52036;DHT22;38046;49.448;32.074;2022-10-16T00:03:43;10.30;61.40
52036;DHT22;38046;49.448;32.074;2022-10-16T00:06:09;10.30;61.50
52036;DHT22;38046;49.448;32.074;2022-10-16T00:08:36;10.40;61.60
52036;DHT22;38046;49.448;32.074;2022-10-16T00:11:10;10.30;61.50
52036;DHT22;38046;49.448;32.074;2022-10-16T00:13:38;10.40;61.60
52036;DHT22;38046;49.448;32.074;2022-10-16T00:16:05;10.40;61.60
52036;DHT22;38046;49.448;32.074;2022-10-16T00:18:31;10.30;61.60
52036;DHT22;38046;49.448;32.074;2022-10-16T00:21:03;10.30;61.80
52036;DHT22;38046;49.448;32.074;2022-10-16T00:23:29;10.40;62.00
52036;DHT22;38046;49.448;32.074;2022-10-16T00:25:59;10.30;61.80
52036;DHT22;38046;49.448;32.074;2022-10-16T00:28:26;10.30;62.00
52036;DHT22;38046;49.448;32.074;2022-10-16T00:30:52;10.30;62.00
52036;DHT22;38046;49.448;32.074;2022-10-16T00:33:18;10.30;62.00
52036;DHT22;38046;49.448;32.074;2022-10-16T00:35:44;10.20;62.20
52036;DHT22;38046;49.448;32.074;2022-10-16T00:38:10;10.20;62.10
52036;DHT22;38046;49.448;32.074;2022-10-16T00:40:35;10.20;62.20
52036;DHT22;38046;49.448;32.074;2022-10-16T00:43:01;10.20;62.30
52036;DHT22;38046;49.448;32.074;2022-10-16T00:45:26;10.20;62.30
52036;DHT22;38046;49.448;32.074;2022-10-16T00:47:54;10.10;62.40
52036;DHT22;38046;49.448;32.074;2022-10-16T00:50:26;10.10;62.50
52036;DHT22;38046;49.448;32.074;2022-10-16T00:52:52;10.10;62.50
52036;DHT22;38046;49.448;32.074;2022-10-16T00:55:19;10.10;62.60
52036;DHT22;38046;49.448;32.074;2022-10-16T00:57:45;10.10;62.60
52036;DHT22;38046;49.448;32.074;2022-10-16T01:00:14;10.10;62.60
52036;DHT22;38046;49.448;32.074;2022-10-16T01:02:41;10.20;62.60
52036;DHT22;38046;49.448;32.074;2022-10-16T01:05:07;10.20;62.60
52036;DHT22;38046;49.448;32.074;2022-10-16T01:07:58;10.20;62.70
52036;DHT22;38046;49.448;32.074;2022-10-16T01:13:06;10.20;62.70
52036;DHT22;38046;49.448;32.074;2022-10-16T01:16:12;10.20;62.70
52036;DHT22;38046;49.448;32.074;2022-10-16T01:18:45;10.20;62.70
52036;DHT22;38046;49.448;32.074;2022-10-16T01:21:35;10.20;62.80
52036;DHT22;38046;49.448;32.074;2022-10-16T01:24:27;10.20;62.80
52036;DHT22;38046;49.448;32.074;2022-10-16T01:27:15;10.20;62.80
52036;DHT22;38046;49.448;32.074;2022-10-16T01:29:56;10.20;62.80
52036;DHT22;38046;49.448;32.074;2022-10-16T01:32:26;10.20;62.80
52036;DHT22;38046;49.448;32.074;2022-10-16T01:35:01;10.10;62.90
52036;DHT22;38046;49.448;32.074;2022-10-16T01:37:53;10.10;63.00
52036;DHT22;38046;49.448;32.074;2022-10-16T01:40:20;10.00;63.00
52036;DHT22;38046;49.448;32.074;2022-10-16T01:42:52;10.00;63.20
52036;DHT22;38046;49.448;32.074;2022-10-16T01:45:21;10.00;63.40
52036;DHT22;38046;49.448;32.074;2022-10-16T01:47:49;9.90;63.40
52036;DHT22;38046;49.448;32.074;2022-10-16T01:50:17;9.90;63.40
52036;DHT22;38046;49.448;32.074;2022-10-16T01:52:46;9.90;63.60
52036;DHT22;38046;49.448;32.074;2022-10-16T01:55:16;9.90;63.80
52036;DHT22;38046;49.448;32.074;2022-10-16T01:57:46;9.90;63.90
52036;DHT22;38046;49.448;32.074;2022-10-16T02:00:17;9.90;63.90
52036;DHT22;38046;49.448;32.074;2022-10-16T02:02:47;9.90;63.90
52036;DHT22;38046;49.448;32.074;2022-10-16T02:07:58;9.90;64.00
52036;DHT22;38046;49.448;32.074;2022-10-16T02:10:25;9.90;64.00
52036;DHT22;38046;49.448;32.074;2022-10-16T02:12:58;9.90;64.10
52036;DHT22;38046;49.448;32.074;2022-10-16T02:15:25;9.90;64.10
52036;DHT22;38046;49.448;32.074;2022-10-16T02:17:51;9.90;64.10
52036;DHT22;38046;49.448;32.074;2022-10-16T02:20:17;9.90;64.10
52036;DHT22;38046;49.448;32.074;2022-10-16T02:22:47;9.80;64.00
52036;DHT22;38046;49.448;32.074;2022-10-16T02:25:30;9.80;64.10
52036;DHT22;38046;49.448;32.074;2022-10-16T02:30:53;9.70;64.40
52036;DHT22;38046;49.448;32.074;2022-10-16T02:33:22;9.60;64.50
52036;DHT22;38046;49.448;32.074;2022-10-16T02:35:50;9.60;64.60
52036;DHT22;38046;49.448;32.074;2022-10-16T02:38:17;9.60;64.80
52036;DHT22;38046;49.448;32.074;2022-10-16T02:40:44;9.60;64.90
52036;DHT22;38046;49.448;32.074;2022-10-16T02:43:10;9.60;64.90
52036;DHT22;38046;49.448;32.074;2022-10-16T02:45:36;9.60;65.00
52036;DHT22;38046;49.448;32.074;2022-10-16T02:48:02;9.60;65.00
52036;DHT22;38046;49.448;32.074;2022-10-16T02:50:27;9.60;65.00
52036;DHT22;38046;49.448;32.074;2022-10-16T02:52:53;9.60;65.10
52036;DHT22;38046;49.448;32.074;2022-10-16T02:55:18;9.60;65.10
52036;DHT22;38046;49.448;32.074;2022-10-16T02:57:44;9.50;65.10
52036;DHT22;38046;49.448;32.074;2022-10-16T03:00:13;9.50;65.20
52036;DHT22;38046;49.448;32.074;2022-10-16T03:02:40;9.50;65.20
52036;DHT22;38046;49.448;32.074;2022-10-16T03:05:06;9.50;65.20
52036;DHT22;38046;49.448;32.074;2022-10-16T03:07:31;9.50;65.30
52036;DHT22;38046;49.448;32.074;2022-10-16T03:09:57;9.50;65.30
52036;DHT22;38046;49.448;32.074;2022-10-16T03:12:26;9.50;65.40
52036;DHT22;38046;49.448;32.074;2022-10-16T03:14:51;9.50;65.50
52036;DHT22;38046;49.448;32.074;2022-10-16T03:17:17;9.50;66.30
52036;DHT22;38046;49.448;32.074;2022-10-16T03:19:43;9.50;65.70
52036;DHT22;38046;49.448;32.074;2022-10-16T03:22:08;9.50;65.70
52036;DHT22;38046;49.448;32.074;2022-10-16T03:24:34;9.50;65.70
52036;DHT22;38046;49.448;32.074;2022-10-16T03:27:00;9.50;65.70
52036;DHT22;38046;49.448;32.074;2022-10-16T03:29:26;9.50;65.70
52036;DHT22;38046;49.448;32.074;2022-10-16T03:31:51;9.50;65.80
52036;DHT22;38046;49.448;32.074;2022-10-16T03:34:17;9.40;65.70
52036;DHT22;38046;49.448;32.074;2022-10-16T03:36:43;9.40;65.80
52036;DHT22;38046;49.448;32.074;2022-10-16T03:39:08;9.40;66.20
52036;DHT22;38046;49.448;32.074;2022-10-16T03:41:34;9.40;66.40
52036;DHT22;38046;49.448;32.074;2022-10-16T03:43:59;9.40;66.50
52036;DHT22;38046;49.448;32.074;2022-10-16T03:46:25;9.40;67.00
52036;DHT22;38046;49.448;32.074;2022-10-16T03:48:51;9.40;67.40
52036;DHT22;38046;49.448;32.074;2022-10-16T03:51:16;9.50;67.80
52036;DHT22;38046;49.448;32.074;2022-10-16T03:53:42;9.60;68.10
52036;DHT22;38046;49.448;32.074;2022-10-16T03:56:08;9.60;68.50
52036;DHT22;38046;49.448;32.074;2022-10-16T03:58:33;9.70;68.70
52036;DHT22;38046;49.448;32.074;2022-10-16T04:00:59;9.70;68.80
52036;DHT22;38046;49.448;32.074;2022-10-16T04:03:24;9.70;69.20
52036;DHT22;38046;49.448;32.074;2022-10-16T04:05:50;9.80;69.60
52036;DHT22;38046;49.448;32.074;2022-10-16T04:08:16;9.80;69.50
52036;DHT22;38046;49.448;32.074;2022-10-16T04:10:45;9.80;69.70
52036;DHT22;38046;49.448;32.074;2022-10-16T04:13:11;9.80;69.90
52036;DHT22;38046;49.448;32.074;2022-10-16T04:15:37;9.80;70.10
52036;DHT22;38046;49.448;32.074;2022-10-16T04:18:03;9.90;70.30
52036;DHT22;38046;49.448;32.074;2022-10-16T04:20:29;9.90;70.50
52036;DHT22;38046;49.448;32.074;2022-10-16T04:22:55;9.90;70.60
52036;DHT22;38046;49.448;32.074;2022-10-16T04:25:21;9.90;70.80
52036;DHT22;38046;49.448;32.074;2022-10-16T04:27:47;9.90;71.50
52036;DHT22;38046;49.448;32.074;2022-10-16T04:30:12;9.90;71.10
52036;DHT22;38046;49.448;32.074;2022-10-16T04:32:39;9.90;71.30
52036;DHT22;38046;49.448;32.074;2022-10-16T04:35:05;10.00;71.40
52036;DHT22;38046;49.448;32.074;2022-10-16T04:37:30;10.00;71.50
52036;DHT22;38046;49.448;32.074;2022-10-16T04:39:56;10.00;71.60
52036;DHT22;38046;49.448;32.074;2022-10-16T04:42:22;10.10;71.70
52036;DHT22;38046;49.448;32.074;2022-10-16T04:44:47;10.10;71.70
52036;DHT22;38046;49.448;32.074;2022-10-16T04:47:13;10.10;71.70
52036;DHT22;38046;49.448;32.074;2022-10-16T04:49:39;10.10;71.90
52036;DHT22;38046;49.448;32.074;2022-10-16T04:52:04;10.10;71.90
52036;DHT22;38046;49.448;32.074;2022-10-16T04:54:30;10.10;72.00
52036;DHT22;38046;49.448;32.074;2022-10-16T04:56:56;10.20;72.20
52036;DHT22;38046;49.448;32.074;2022-10-16T04:59:22;10.20;72.20
52036;DHT22;38046;49.448;32.074;2022-10-16T05:01:48;10.20;72.30
52036;DHT22;38046;49.448;32.074;2022-10-16T05:04:14;10.20;72.40
52036;DHT22;38046;49.448;32.074;2022-10-16T05:06:41;10.30;72.50
52036;DHT22;38046;49.448;32.074;2022-10-16T05:09:07;10.30;72.50
52036;DHT22;38046;49.448;32.074;2022-10-16T05:11:33;10.40;72.60
52036;DHT22;38046;49.448;32.074;2022-10-16T05:13:59;10.40;72.50
52036;DHT22;38046;49.448;32.074;2022-10-16T05:16:25;10.40;72.60
52036;DHT22;38046;49.448;32.074;2022-10-16T05:18:54;10.40;72.60
52036;DHT22;38046;49.448;32.074;2022-10-16T05:21:20;10.40;72.70
52036;DHT22;38046;49.448;32.074;2022-10-16T05:23:46;10.50;72.90
52036;DHT22;38046;49.448;32.074;2022-10-16T05:26:11;10.40;72.80
52036;DHT22;38046;49.448;32.074;2022-10-16T05:28:37;10.50;72.90
52036;DHT22;38046;49.448;32.074;2022-10-16T05:31:07;10.50;72.90
52036;DHT22;38046;49.448;32.074;2022-10-16T05:33:33;10.50;73.10
52036;DHT22;38046;49.448;32.074;2022-10-16T05:36:03;10.60;73.20
52036;DHT22;38046;49.448;32.074;2022-10-16T05:38:29;10.60;73.30
52036;DHT22;38046;49.448;32.074;2022-10-16T05:40:55;10.70;73.30
52036;DHT22;38046;49.448;32.074;2022-10-16T05:43:21;10.70;73.30
52036;DHT22;38046;49.448;32.074;2022-10-16T05:46:02;10.80;73.40
52036;DHT22;38046;49.448;32.074;2022-10-16T05:48:28;10.80;73.50
52036;DHT22;38046;49.448;32.074;2022-10-16T05:53:23;11.00;73.50
52036;DHT22;38046;49.448;32.074;2022-10-16T05:55:55;11.00;73.20
52036;DHT22;38046;49.448;32.074;2022-10-16T05:58:21;11.10;73.10
52036;DHT22;38046;49.448;32.074;2022-10-16T06:00:58;11.20;73.10
52036;DHT22;38046;49.448;32.074;2022-10-16T06:03:23;11.20;73.00
52036;DHT22;38046;49.448;32.074;2022-10-16T06:05:50;11.30;72.90
52036;DHT22;38046;49.448;32.074;2022-10-16T06:08:16;11.30;72.90
52036;DHT22;38046;49.448;32.074;2022-10-16T06:10:42;11.40;72.90
52036;DHT22;38046;49.448;32.074;2022-10-16T06:13:09;11.40;72.70
52036;DHT22;38046;49.448;32.074;2022-10-16T06:15:34;11.40;72.60
52036;DHT22;38046;49.448;32.074;2022-10-16T06:18:00;11.40;72.50
52036;DHT22;38046;49.448;32.074;2022-10-16T06:20:26;11.40;72.60
52036;DHT22;38046;49.448;32.074;2022-10-16T06:22:51;11.30;72.70
52036;DHT22;38046;49.448;32.074;2022-10-16T06:25:17;11.40;72.90
52036;DHT22;38046;49.448;32.074;2022-10-16T06:27:43;11.40;73.10
52036;DHT22;38046;49.448;32.074;2022-10-16T06:30:09;11.40;73.20
52036;DHT22;38046;49.448;32.074;2022-10-16T06:32:34;11.40;73.30
52036;DHT22;38046;49.448;32.074;2022-10-16T06:35:00;11.40;73.40
52036;DHT22;38046;49.448;32.074;2022-10-16T06:37:27;11.40;73.40
52036;DHT22;38046;49.448;32.074;2022-10-16T06:39:52;11.50;73.50
52036;DHT22;38046;49.448;32.074;2022-10-16T06:42:18;11.50;74.10
52036;DHT22;38046;49.448;32.074;2022-10-16T06:44:44;11.50;73.40
52036;DHT22;38046;49.448;32.074;2022-10-16T06:47:10;11.50;73.40
52036;DHT22;38046;49.448;32.074;2022-10-16T06:49:35;11.50;73.30
52036;DHT22;38046;49.448;32.074;2022-10-16T06:52:02;11.50;73.20
52036;DHT22;38046;49.448;32.074;2022-10-16T06:54:28;11.40;73.20
52036;DHT22;38046;49.448;32.074;2022-10-16T06:56:53;11.40;73.30
52036;DHT22;38046;49.448;32.074;2022-10-16T06:59:20;11.30;73.50
52036;DHT22;38046;49.448;32.074;2022-10-16T07:01:46;11.30;73.70
52036;DHT22;38046;49.448;32.074;2022-10-16T07:04:12;11.30;73.70
52036;DHT22;38046;49.448;32.074;2022-10-16T07:06:38;11.30;73.90
52036;DHT22;38046;49.448;32.074;2022-10-16T07:09:07;11.30;73.90
52036;DHT22;38046;49.448;32.074;2022-10-16T07:11:33;11.30;74.00
52036;DHT22;38046;49.448;32.074;2022-10-16T07:13:59;11.30;74.00
52036;DHT22;38046;49.448;32.074;2022-10-16T07:16:30;11.40;74.00
52036;DHT22;38046;49.448;32.074;2022-10-16T07:18:57;11.40;74.00
52036;DHT22;38046;49.448;32.074;2022-10-16T07:21:25;11.50;74.20
52036;DHT22;38046;49.448;32.074;2022-10-16T07:23:56;11.50;74.30
52036;DHT22;38046;49.448;32.074;2022-10-16T07:26:23;11.60;74.30
52036;DHT22;38046;49.448;32.074;2022-10-16T07:28:49;11.60;74.30
52036;DHT22;38046;49.448;32.074;2022-10-16T07:31:17;11.70;74.20
52036;DHT22;38046;49.448;32.074;2022-10-16T07:33:44;11.80;74.10
52036;DHT22;38046;49.448;32.074;2022-10-16T07:36:11;11.80;74.00
52036;DHT22;38046;49.448;32.074;2022-10-16T07:38:37;11.90;73.90
52036;DHT22;38046;49.448;32.074;2022-10-16T07:41:06;11.90;73.70
52036;DHT22;38046;49.448;32.074;2022-10-16T07:43:32;12.00;73.70
52036;DHT22;38046;49.448;32.074;2022-10-16T07:45:58;12.00;73.60
52036;DHT22;38046;49.448;32.074;2022-10-16T07:48:27;12.10;73.50
52036;DHT22;38046;49.448;32.074;2022-10-16T07:51:00;12.10;73.40
52036;DHT22;38046;49.448;32.074;2022-10-16T07:53:26;12.10;73.40
52036;DHT22;38046;49.448;32.074;2022-10-16T07:55:54;12.10;73.40
52036;DHT22;38046;49.448;32.074;2022-10-16T07:58:21;12.10;73.40
52036;DHT22;38046;49.448;32.074;2022-10-16T08:00:47;12.10;73.50
52036;DHT22;38046;49.448;32.074;2022-10-16T08:03:13;12.10;73.40
52036;DHT22;38046;49.448;32.074;2022-10-16T08:05:38;12.10;73.40
52036;DHT22;38046;49.448;32.074;2022-10-16T08:08:04;12.10;73.40
52036;DHT22;38046;49.448;32.074;2022-10-16T08:10:30;12.10;73.50
52036;DHT22;38046;49.448;32.074;2022-10-16T08:12:57;12.10;73.60
52036;DHT22;38046;49.448;32.074;2022-10-16T08:15:22;12.10;73.60
52036;DHT22;38046;49.448;32.074;2022-10-16T08:18:03;12.10;73.40
52036;DHT22;38046;49.448;32.074;2022-10-16T08:20:30;12.10;73.30
52036;DHT22;38046;49.448;32.074;2022-10-16T08:22:56;12.00;73.40
52036;DHT22;38046;49.448;32.074;2022-10-16T08:25:23;12.00;73.40
52036;DHT22;38046;49.448;32.074;2022-10-16T08:27:49;12.00;73.40
52036;DHT22;38046;49.448;32.074;2022-10-16T08:30:17;12.00;73.40
52036;DHT22;38046;49.448;32.074;2022-10-16T08:32:42;12.00;74.10
52036;DHT22;38046;49.448;32.074;2022-10-16T08:35:09;12.00;73.30
52036;DHT22;38046;49.448;32.074;2022-10-16T08:37:36;12.00;73.20
52036;DHT22;38046;49.448;32.074;2022-10-16T08:40:02;11.90;73.20
52036;DHT22;38046;49.448;32.074;2022-10-16T08:50:31;11.80;73.50
52036;DHT22;38046;49.448;32.074;2022-10-16T08:52:58;11.80;73.50
52036;DHT22;38046;49.448;32.074;2022-10-16T08:57:55;11.80;73.30
52036;DHT22;38046;49.448;32.074;2022-10-16T09:00:21;11.90;73.40
52036;DHT22;38046;49.448;32.074;2022-10-16T09:03:49;11.90;73.20
52036;DHT22;38046;49.448;32.074;2022-10-16T09:05:57;11.90;73.00
52036;DHT22;38046;49.448;32.074;2022-10-16T09:14:28;11.90;72.90
52036;DHT22;38046;49.448;32.074;2022-10-16T09:19:44;11.90;72.70
52036;DHT22;38046;49.448;32.074;2022-10-16T09:22:16;11.90;72.50
52036;DHT22;38046;49.448;32.074;2022-10-16T09:24:42;11.90;72.10
52036;DHT22;38046;49.448;32.074;2022-10-16T09:27:11;11.90;72.20
52036;DHT22;38046;49.448;32.074;2022-10-16T09:29:37;11.90;72.20
52036;DHT22;38046;49.448;32.074;2022-10-16T09:32:12;11.90;72.10
52036;DHT22;38046;49.448;32.074;2022-10-16T09:34:43;11.90;71.80
52036;DHT22;38046;49.448;32.074;2022-10-16T09:37:12;11.80;71.40
52036;DHT22;38046;49.448;32.074;2022-10-16T09:39:52;11.80;71.20
52036;DHT22;38046;49.448;32.074;2022-10-16T09:42:31;11.70;71.10
52036;DHT22;38046;49.448;32.074;2022-10-16T09:44:58;11.70;70.60
52036;DHT22;38046;49.448;32.074;2022-10-16T09:47:28;11.60;70.40
52036;DHT22;38046;49.448;32.074;2022-10-16T09:50:20;11.60;70.20
52036;DHT22;38046;49.448;32.074;2022-10-16T09:52:47;11.50;69.90
52036;DHT22;38046;49.448;32.074;2022-10-16T09:55:15;11.50;69.60
52036;DHT22;38046;49.448;32.074;2022-10-16T09:57:52;11.40;69.60
52036;DHT22;38046;49.448;32.074;2022-10-16T10:00:19;11.40;69.40
52036;DHT22;38046;49.448;32.074;2022-10-16T10:02:45;11.40;69.20
52036;DHT22;38046;49.448;32.074;2022-10-16T10:05:26;11.30;68.90
52036;DHT22;38046;49.448;32.074;2022-10-16T10:08:00;11.30;68.90
52036;DHT22;38046;49.448;32.074;2022-10-16T10:10:33;11.30;68.90
52036;DHT22;38046;49.448;32.074;2022-10-16T10:12:59;11.30;69.00
52036;DHT22;38046;49.448;32.074;2022-10-16T10:15:29;11.30;68.80
52036;DHT22;38046;49.448;32.074;2022-10-16T10:17:58;11.30;68.50
52036;DHT22;38046;49.448;32.074;2022-10-16T10:20:29;11.30;68.30
52036;DHT22;38046;49.448;32.074;2022-10-16T10:22:57;11.40;68.40
52036;DHT22;38046;49.448;32.074;2022-10-16T10:25:34;11.40;68.30
52036;DHT22;38046;49.448;32.074;2022-10-16T10:28:42;11.40;68.00
52036;DHT22;38046;49.448;32.074;2022-10-16T10:33:51;11.40;67.70
52036;DHT22;38046;49.448;32.074;2022-10-16T10:42:08;11.40;67.60
52036;DHT22;38046;49.448;32.074;2022-10-16T10:50:26;11.30;66.60
52036;DHT22;38046;49.448;32.074;2022-10-16T10:53:21;11.20;66.70
52036;DHT22;38046;49.448;32.074;2022-10-16T10:56:02;11.20;66.70
52036;DHT22;38046;49.448;32.074;2022-10-16T11:01:28;11.10;66.70
52036;DHT22;38046;49.448;32.074;2022-10-16T11:06:48;11.10;66.60
52036;DHT22;38046;49.448;32.074;2022-10-16T11:09:22;11.10;66.70
52036;DHT22;38046;49.448;32.074;2022-10-16T11:11:56;11.10;66.80
52036;DHT22;38046;49.448;32.074;2022-10-16T11:14:29;11.20;66.60
52036;DHT22;38046;49.448;32.074;2022-10-16T11:17:08;11.20;66.70
52036;DHT22;38046;49.448;32.074;2022-10-16T11:19:49;11.20;66.70
52036;DHT22;38046;49.448;32.074;2022-10-16T11:22:22;11.20;66.60
52036;DHT22;38046;49.448;32.074;2022-10-16T11:30:28;11.20;66.00
52036;DHT22;38046;49.448;32.074;2022-10-16T11:38:33;11.20;65.80
52036;DHT22;38046;49.448;32.074;2022-10-16T11:43:52;11.30;65.90
52036;DHT22;38046;49.448;32.074;2022-10-16T11:46:21;11.30;65.90
52036;DHT22;38046;49.448;32.074;2022-10-16T11:57:28;11.30;65.90
52036;DHT22;38046;49.448;32.074;2022-10-16T12:00:02;11.30;66.60
52036;DHT22;38046;49.448;32.074;2022-10-16T12:08:10;11.40;65.90
52036;DHT22;38046;49.448;32.074;2022-10-16T12:10:37;11.30;65.80
52036;DHT22;38046;49.448;32.074;2022-10-16T12:13:05;11.40;65.80
52036;DHT22;38046;49.448;32.074;2022-10-16T12:15:33;11.40;65.70
52036;DHT22;38046;49.448;32.074;2022-10-16T12:18:00;11.40;65.80
52036;DHT22;38046;49.448;32.074;2022-10-16T12:20:31;11.30;65.70
52036;DHT22;38046;49.448;32.074;2022-10-16T12:23:02;11.40;65.90
52036;DHT22;38046;49.448;32.074;2022-10-16T12:28:01;11.40;65.90
52036;DHT22;38046;49.448;32.074;2022-10-16T12:30:30;11.50;65.80
52036;DHT22;38046;49.448;32.074;2022-10-16T12:33:16;11.40;65.70
52036;DHT22;38046;49.448;32.074;2022-10-16T12:35:45;11.50;65.80
52036;DHT22;38046;49.448;32.074;2022-10-16T12:38:26;11.50;65.70
52036;DHT22;38046;49.448;32.074;2022-10-16T12:45:46;11.50;65.70
52036;DHT22;38046;49.448;32.074;2022-10-16T12:48:22;11.50;65.60
52036;DHT22;38046;49.448;32.074;2022-10-16T12:50:48;11.50;65.40
52036;DHT22;38046;49.448;32.074;2022-10-16T12:53:19;11.50;65.40
52036;DHT22;38046;49.448;32.074;2022-10-16T13:01:41;11.60;65.20
52036;DHT22;38046;49.448;32.074;2022-10-16T13:06:53;11.60;65.20
52036;DHT22;38046;49.448;32.074;2022-10-16T13:14:45;11.60;65.20
52036;DHT22;38046;49.448;32.074;2022-10-16T13:17:24;11.70;65.30
52036;DHT22;38046;49.448;32.074;2022-10-16T13:23:30;11.70;65.20
52036;DHT22;38046;49.448;32.074;2022-10-16T13:28:29;11.70;65.30
52036;DHT22;38046;49.448;32.074;2022-10-16T13:31:00;11.70;65.20
52036;DHT22;38046;49.448;32.074;2022-10-16T13:33:35;11.70;65.30
52036;DHT22;38046;49.448;32.074;2022-10-16T13:36:02;11.70;65.30
52036;DHT22;38046;49.448;32.074;2022-10-16T13:38:31;11.70;65.30
52036;DHT22;38046;49.448;32.074;2022-10-16T13:41:04;11.70;65.40
52036;DHT22;38046;49.448;32.074;2022-10-16T13:46:02;11.70;65.30
52036;DHT22;38046;49.448;32.074;2022-10-16T13:48:29;11.70;65.40
52036;DHT22;38046;49.448;32.074;2022-10-16T13:51:06;11.70;65.40
52036;DHT22;38046;49.448;32.074;2022-10-16T13:53:35;11.80;65.40
52036;DHT22;38046;49.448;32.074;2022-10-16T13:56:07;11.80;65.40
52036;DHT22;38046;49.448;32.074;2022-10-16T13:58:33;11.80;65.50
52036;DHT22;38046;49.448;32.074;2022-10-16T14:01:04;11.80;65.40
52036;DHT22;38046;49.448;32.074;2022-10-16T14:03:31;11.80;65.40
52036;DHT22;38046;49.448;32.074;2022-10-16T14:06:03;11.90;65.40
52036;DHT22;38046;49.448;32.074;2022-10-16T14:08:30;11.90;65.30
52036;DHT22;38046;49.448;32.074;2022-10-16T14:10:59;11.90;65.20
52036;DHT22;38046;49.448;32.074;2022-10-16T14:13:43;11.90;65.10
52036;DHT22;38046;49.448;32.074;2022-10-16T14:16:17;12.00;65.00
52036;DHT22;38046;49.448;32.074;2022-10-16T14:18:48;12.00;65.00
52036;DHT22;38046;49.448;32.074;2022-10-16T14:21:16;12.00;64.90
52036;DHT22;38046;49.448;32.074;2022-10-16T14:23:42;12.00;64.90
52036;DHT22;38046;49.448;32.074;2022-10-16T14:28:34;12.00;64.90
52036;DHT22;38046;49.448;32.074;2022-10-16T14:31:01;12.00;64.70
52036;DHT22;38046;49.448;32.074;2022-10-16T14:36:14;12.00;64.80
52036;DHT22;38046;49.448;32.074;2022-10-16T14:41:22;12.00;64.70
52036;DHT22;38046;49.448;32.074;2022-10-16T14:43:54;12.00;64.70
52036;DHT22;38046;49.448;32.074;2022-10-16T14:46:22;12.10;64.60
52036;DHT22;38046;49.448;32.074;2022-10-16T14:49:23;12.00;64.60
52036;DHT22;38046;49.448;32.074;2022-10-16T14:51:48;12.00;64.60
52036;DHT22;38046;49.448;32.074;2022-10-16T14:54:16;12.00;64.70
52036;DHT22;38046;49.448;32.074;2022-10-16T14:57:15;12.00;64.70
52036;DHT22;38046;49.448;32.074;2022-10-16T14:59:42;12.00;64.70
52036;DHT22;38046;49.448;32.074;2022-10-16T15:04:42;11.90;64.90
52036;DHT22;38046;49.448;32.074;2022-10-16T15:07:08;11.90;64.80
52036;DHT22;38046;49.448;32.074;2022-10-16T15:09:33;11.90;65.00
52036;DHT22;38046;49.448;32.074;2022-10-16T15:11:59;11.80;65.70
52036;DHT22;38046;49.448;32.074;2022-10-16T15:14:25;11.80;65.20
52036;DHT22;38046;49.448;32.074;2022-10-16T15:16:50;11.70;65.20
52036;DHT22;38046;49.448;32.074;2022-10-16T15:19:16;11.70;65.40
52036;DHT22;38046;49.448;32.074;2022-10-16T15:21:42;11.70;65.40
52036;DHT22;38046;49.448;32.074;2022-10-16T15:24:12;11.60;65.50
52036;DHT22;38046;49.448;32.074;2022-10-16T15:26:38;11.60;65.50
52036;DHT22;38046;49.448;32.074;2022-10-16T15:29:03;11.50;65.70
52036;DHT22;38046;49.448;32.074;2022-10-16T15:31:30;11.50;65.90
52036;DHT22;38046;49.448;32.074;2022-10-16T15:33:56;11.50;65.90
52036;DHT22;38046;49.448;32.074;2022-10-16T15:36:32;11.40;65.90
52036;DHT22;38046;49.448;32.074;2022-10-16T15:39:10;11.40;66.00
52036;DHT22;38046;49.448;32.074;2022-10-16T15:41:37;11.30;66.10
52036;DHT22;38046;49.448;32.074;2022-10-16T15:44:03;11.30;66.10
52036;DHT22;38046;49.448;32.074;2022-10-16T15:46:29;11.30;66.30
52036;DHT22;38046;49.448;32.074;2022-10-16T15:48:57;11.20;66.30
52036;DHT22;38046;49.448;32.074;2022-10-16T15:51:23;11.20;66.40
52036;DHT22;38046;49.448;32.074;2022-10-16T15:53:49;11.20;66.50
52036;DHT22;38046;49.448;32.074;2022-10-16T15:56:16;11.20;66.60
52036;DHT22;38046;49.448;32.074;2022-10-16T15:58:43;11.20;66.60
52036;DHT22;38046;49.448;32.074;2022-10-16T16:01:09;11.10;66.60
52036;DHT22;38046;49.448;32.074;2022-10-16T16:03:37;11.20;66.60
52036;DHT22;38046;49.448;32.074;2022-10-16T16:06:07;11.10;66.60
52036;DHT22;38046;49.448;32.074;2022-10-16T16:08:33;11.10;66.70
52036;DHT22;38046;49.448;32.074;2022-10-16T16:11:04;11.10;66.80
52036;DHT22;38046;49.448;32.074;2022-10-16T16:13:31;11.10;66.90
52036;DHT22;38046;49.448;32.074;2022-10-16T16:15:57;11.10;66.90
52036;DHT22;38046;49.448;32.074;2022-10-16T16:18:23;11.10;66.90
52036;DHT22;38046;49.448;32.074;2022-10-16T16:20:52;11.10;66.90
52036;DHT22;38046;49.448;32.074;2022-10-16T16:23:18;11.10;66.90
52036;DHT22;38046;49.448;32.074;2022-10-16T16:25:45;11.10;66.90
52036;DHT22;38046;49.448;32.074;2022-10-16T16:28:10;11.20;67.00
52036;DHT22;38046;49.448;32.074;2022-10-16T16:30:40;11.20;67.10
52036;DHT22;38046;49.448;32.074;2022-10-16T16:33:05;11.10;67.00
52036;DHT22;38046;49.448;32.074;2022-10-16T16:35:31;11.20;67.10
52036;DHT22;38046;49.448;32.074;2022-10-16T16:37:56;11.20;67.10
52036;DHT22;38046;49.448;32.074;2022-10-16T16:40:22;11.20;67.30
52036;DHT22;38046;49.448;32.074;2022-10-16T16:42:48;11.20;67.20
52036;DHT22;38046;49.448;32.074;2022-10-16T16:45:14;11.20;67.20
52036;DHT22;38046;49.448;32.074;2022-10-16T16:47:40;11.20;67.30
52036;DHT22;38046;49.448;32.074;2022-10-16T16:50:06;11.20;67.90
52036;DHT22;38046;49.448;32.074;2022-10-16T16:52:33;11.10;67.10
52036;DHT22;38046;49.448;32.074;2022-10-16T16:54:58;11.20;67.20
52036;DHT22;38046;49.448;32.074;2022-10-16T16:57:24;11.10;67.20
52036;DHT22;38046;49.448;32.074;2022-10-16T16:59:50;11.00;67.30
52036;DHT22;38046;49.448;32.074;2022-10-16T17:02:17;11.00;67.30
52036;DHT22;38046;49.448;32.074;2022-10-16T17:04:42;10.90;67.40
52036;DHT22;38046;49.448;32.074;2022-10-16T17:07:08;10.90;67.60
52036;DHT22;38046;49.448;32.074;2022-10-16T17:09:34;10.90;67.60
52036;DHT22;38046;49.448;32.074;2022-10-16T17:11:59;10.90;67.70
52036;DHT22;38046;49.448;32.074;2022-10-16T17:14:25;10.80;67.80
52036;DHT22;38046;49.448;32.074;2022-10-16T17:16:52;10.80;68.00
52036;DHT22;38046;49.448;32.074;2022-10-16T17:19:19;10.80;68.00
52036;DHT22;38046;49.448;32.074;2022-10-16T17:21:49;10.80;68.10
52036;DHT22;38046;49.448;32.074;2022-10-16T17:24:14;10.80;68.00
52036;DHT22;38046;49.448;32.074;2022-10-16T17:26:40;10.80;68.00